createdAt,value
2022-08-20T00:00:39.210Z,12.60
2022-08-20T00:03:16.575Z,7.30
2022-08-20T00:05:52.798Z,5.50
2022-08-20T00:08:28.708Z,5.80
2022-08-20T00:11:01.094Z,5.80
2022-08-20T00:13:38.667Z,7.50
2022-08-20T00:16:14.004Z,9.60
2022-08-20T00:18:46.220Z,8.00
2022-08-20T00:21:20.166Z,5.80
2022-08-20T00:23:53.211Z,9.60
2022-08-20T00:26:25.769Z,7.50
2022-08-20T00:28:56.807Z,5.90
2022-08-20T00:31:27.650Z,7.30
2022-08-20T00:33:58.394Z,6.70
2022-08-20T00:36:32.307Z,8.80
2022-08-20T00:39:03.980Z,8.60
2022-08-20T00:41:35.021Z,11.00
2022-08-20T00:44:13.612Z,6.00
2022-08-20T00:46:45.825Z,7.00
2022-08-20T00:49:22.232Z,6.30
2022-08-20T00:51:57.588Z,7.40
2022-08-20T00:54:37.831Z,8.30
2022-08-20T00:57:12.293Z,5.90
2022-08-20T00:59:44.633Z,8.10
2022-08-20T01:02:18.776Z,7.60
2022-08-20T01:04:51.890Z,7.90
2022-08-20T01:09:58.951Z,9.40
2022-08-20T01:12:32.493Z,9.20
2022-08-20T01:15:05.785Z,11.20
2022-08-20T01:17:41.775Z,8.70
2022-08-20T01:20:17.006Z,6.90
2022-08-20T01:23:09.149Z,6.70
2022-08-20T01:25:50.444Z,10.60
2022-08-20T01:28:25.684Z,10.00
2022-08-20T01:30:56.898Z,7.60
2022-08-20T01:33:28.527Z,7.10
2022-08-20T01:35:59.213Z,8.40
2022-08-20T01:38:30.640Z,8.40
2022-08-20T01:41:28.626Z,8.70
2022-08-20T01:44:00.620Z,8.70
2022-08-20T01:46:36.937Z,9.40
2022-08-20T01:49:23.359Z,11.40
2022-08-20T01:51:57.514Z,11.00
2022-08-20T01:54:29.011Z,8.90
2022-08-20T01:57:03.426Z,12.80
2022-08-20T01:59:34.148Z,9.90
2022-08-20T02:02:07.101Z,11.10
2022-08-20T02:04:38.220Z,11.00
2022-08-20T02:07:14.653Z,10.70
2022-08-20T02:09:47.544Z,10.20
2022-08-20T02:12:19.637Z,10.20
2022-08-20T02:14:53.317Z,12.90
2022-08-20T02:17:26.788Z,10.10
2022-08-20T02:20:02.678Z,11.00
2022-08-20T02:22:38.712Z,10.10
2022-08-20T02:25:12.201Z,9.90
2022-08-20T02:27:46.063Z,10.80
2022-08-20T02:30:27.585Z,11.20
2022-08-20T02:33:00.419Z,10.30
2022-08-20T02:35:32.280Z,10.10
2022-08-20T02:38:05.112Z,10.50
2022-08-20T02:40:36.555Z,11.20
2022-08-20T02:43:07.816Z,12.00
2022-08-20T02:45:44.080Z,10.10
2022-08-20T02:48:20.931Z,11.50
2022-08-20T02:50:56.780Z,10.10
2022-08-20T02:53:29.342Z,9.60
2022-08-20T02:56:01.041Z,10.10
2022-08-20T02:58:31.892Z,10.40
2022-08-20T03:01:02.969Z,9.70
2022-08-20T03:03:33.984Z,10.20
2022-08-20T03:06:05.446Z,9.90
2022-08-20T03:08:36.995Z,10.00
2022-08-20T03:11:08.662Z,10.70
2022-08-20T03:13:39.668Z,9.70
2022-08-20T03:16:11.936Z,9.90
2022-08-20T03:18:45.505Z,11.20
2022-08-20T03:21:16.253Z,9.80
2022-08-20T03:23:47.636Z,10.70
2022-08-20T03:26:18.283Z,10.70
2022-08-20T03:28:49.345Z,12.00
2022-08-20T03:31:20.537Z,10.00
2022-08-20T03:33:53.455Z,10.50
2022-08-20T03:36:27.693Z,10.10
2022-08-20T03:39:01.703Z,10.40
2022-08-20T03:41:33.327Z,10.70
2022-08-20T03:44:04.695Z,10.50
2022-08-20T03:46:36.077Z,10.60
2022-08-20T03:49:06.822Z,10.50
2022-08-20T03:51:57.360Z,9.50
2022-08-20T03:54:31.633Z,9.60
2022-08-20T03:57:03.831Z,10.70
2022-08-20T03:59:44.741Z,13.10
2022-08-20T04:02:15.607Z,10.10
2022-08-20T04:04:46.677Z,10.90
2022-08-20T04:07:20.595Z,10.60
2022-08-20T04:09:51.304Z,9.80
2022-08-20T04:12:23.510Z,11.10
2022-08-20T04:14:55.147Z,12.30
2022-08-20T04:17:26.662Z,10.30
2022-08-20T04:19:57.537Z,10.90
2022-08-20T04:22:28.385Z,11.80
2022-08-20T04:24:59.159Z,11.30
2022-08-20T04:27:32.633Z,11.00
2022-08-20T04:30:04.399Z,11.00
2022-08-20T04:32:37.093Z,9.20
2022-08-20T04:35:12.254Z,10.50
2022-08-20T04:37:43.533Z,11.80
2022-08-20T04:40:35.632Z,12.40
2022-08-20T04:43:06.934Z,10.00
2022-08-20T04:45:37.670Z,9.60
2022-08-20T04:48:14.264Z,10.70
2022-08-20T04:50:47.795Z,9.70
2022-08-20T04:53:25.270Z,10.60
2022-08-20T04:55:59.590Z,10.00
2022-08-20T04:58:34.917Z,9.30
2022-08-20T05:01:09.641Z,10.10
2022-08-20T05:03:41.564Z,10.10
2022-08-20T05:06:13.471Z,10.30
2022-08-20T05:08:44.332Z,9.50
2022-08-20T05:11:35.854Z,10.20
2022-08-20T05:16:39.326Z,9.00
2022-08-20T05:19:12.737Z,9.00
2022-08-20T05:24:13.206Z,10.80
2022-08-20T05:26:44.050Z,11.70
2022-08-20T05:29:14.754Z,10.50
2022-08-20T05:31:46.059Z,10.10
2022-08-20T05:34:16.965Z,10.00
2022-08-20T05:36:49.744Z,10.70
2022-08-20T05:39:22.404Z,10.70
2022-08-20T05:41:53.470Z,10.60
2022-08-20T05:44:24.610Z,10.80
2022-08-20T05:46:55.443Z,10.60
2022-08-20T05:49:26.764Z,11.00
2022-08-20T05:51:59.257Z,11.30
2022-08-20T05:54:29.897Z,11.40
2022-08-20T05:57:00.589Z,11.10
2022-08-20T05:59:31.305Z,11.40
2022-08-20T06:02:02.140Z,11.20
2022-08-20T06:04:34.400Z,11.10
2022-08-20T06:07:08.249Z,12.20
2022-08-20T06:09:41.341Z,11.90
2022-08-20T06:12:14.290Z,11.80
2022-08-20T06:14:47.366Z,10.50
2022-08-20T06:17:22.163Z,11.80
2022-08-20T06:19:53.357Z,11.10
2022-08-20T06:22:26.125Z,10.70
2022-08-20T06:27:27.402Z,12.20
2022-08-20T06:29:58.467Z,12.80
2022-08-20T06:32:31.993Z,12.20
2022-08-20T06:35:05.986Z,13.70
2022-08-20T06:37:39.684Z,10.00
2022-08-20T06:40:14.732Z,11.20
2022-08-20T06:42:48.516Z,11.50
2022-08-20T06:45:24.458Z,11.50
2022-08-20T06:47:58.161Z,10.80
2022-08-20T06:50:31.704Z,9.80
2022-08-20T06:53:02.984Z,11.90
2022-08-20T06:55:34.210Z,13.00
2022-08-20T06:58:08.108Z,11.50
2022-08-20T07:01:04.477Z,12.80
2022-08-20T07:03:42.257Z,11.40
2022-08-20T07:06:26.981Z,11.90
2022-08-20T07:08:58.223Z,9.30
2022-08-20T07:11:29.222Z,9.10
2022-08-20T07:14:01.425Z,9.40
2022-08-20T07:16:32.817Z,10.30
2022-08-20T07:19:03.741Z,11.00
2022-08-20T07:21:34.500Z,12.10
2022-08-20T07:24:05.977Z,13.50
2022-08-20T07:26:36.714Z,13.00
2022-08-20T07:29:08.056Z,11.00
2022-08-20T07:31:56.497Z,10.90
2022-08-20T07:34:27.230Z,12.50
2022-08-20T07:37:01.631Z,12.50
2022-08-20T07:39:32.724Z,12.50
2022-08-20T07:42:07.850Z,14.50
2022-08-20T07:44:39.391Z,12.20
2022-08-20T07:47:10.475Z,13.50
2022-08-20T07:49:41.688Z,12.60
2022-08-20T07:52:13.519Z,14.00
2022-08-20T07:54:44.481Z,12.80
2022-08-20T07:57:17.416Z,14.20
2022-08-20T07:59:48.922Z,14.40
2022-08-20T08:02:20.021Z,14.70
2022-08-20T08:04:50.700Z,12.50
2022-08-20T08:07:22.222Z,13.80
2022-08-20T08:09:53.834Z,13.00
2022-08-20T08:12:29.582Z,15.00
2022-08-20T08:15:00.473Z,13.60
2022-08-20T08:17:32.294Z,13.40
2022-08-20T08:20:04.721Z,11.90
2022-08-20T08:22:35.716Z,13.50
2022-08-20T08:25:07.912Z,13.70
2022-08-20T08:27:38.999Z,13.20
2022-08-20T08:30:12.770Z,14.00
2022-08-20T08:33:04.594Z,12.00
2022-08-20T08:35:35.418Z,11.70
2022-08-20T08:38:06.147Z,12.60
2022-08-20T08:40:37.970Z,12.00
2022-08-20T08:43:11.226Z,12.00
2022-08-20T08:45:46.681Z,12.50
2022-08-20T08:48:21.288Z,13.30
2022-08-20T08:50:57.486Z,11.30
2022-08-20T08:53:36.511Z,12.40
2022-08-20T08:56:08.220Z,10.90
2022-08-20T08:58:40.016Z,11.30
2022-08-20T09:01:54.210Z,11.80
2022-08-20T09:04:06.771Z,11.80
2022-08-20T09:06:40.509Z,10.40
2022-08-20T09:09:21.397Z,10.20
2022-08-20T09:11:54.329Z,10.20
2022-08-20T09:14:26.953Z,10.90
2022-08-20T09:16:57.787Z,11.90
2022-08-20T09:19:28.729Z,10.90
2022-08-20T09:22:00.020Z,10.20
2022-08-20T09:24:30.837Z,12.40
2022-08-20T09:27:01.686Z,10.00
2022-08-20T09:29:33.532Z,10.50
2022-08-20T09:32:12.791Z,10.90
2022-08-20T09:34:47.811Z,10.10
2022-08-20T09:37:19.327Z,9.40
2022-08-20T09:39:50.467Z,9.70
2022-08-20T09:42:23.870Z,8.50
2022-08-20T09:44:55.413Z,7.90
2022-08-20T09:47:27.206Z,8.60
2022-08-20T09:49:57.951Z,8.80
2022-08-20T09:52:32.031Z,8.70
2022-08-20T09:55:06.440Z,8.50
2022-08-20T09:57:37.870Z,8.50
2022-08-20T10:00:12.497Z,8.10
2022-08-20T10:02:44.169Z,7.80
2022-08-20T10:05:15.192Z,8.30
2022-08-20T10:07:46.424Z,7.70
2022-08-20T10:10:17.797Z,7.80
2022-08-20T10:12:52.806Z,7.80
2022-08-20T10:15:25.654Z,8.50
2022-08-20T10:17:57.414Z,7.80
2022-08-20T10:20:28.874Z,7.20
2022-08-20T10:22:59.893Z,8.50
2022-08-20T10:25:30.617Z,6.50
2022-08-20T10:28:01.299Z,6.50
2022-08-20T10:30:32.472Z,7.00
2022-08-20T10:33:03.292Z,6.70
2022-08-20T10:35:34.083Z,7.60
2022-08-20T10:38:04.802Z,7.00
2022-08-20T10:40:35.572Z,6.90
2022-08-20T10:43:06.519Z,7.10
2022-08-20T10:45:37.555Z,6.80
2022-08-20T10:48:11.137Z,6.30
2022-08-20T10:50:41.970Z,7.50
2022-08-20T10:53:13.070Z,7.20
2022-08-20T10:55:43.966Z,7.10
2022-08-20T10:58:14.721Z,6.40
2022-08-20T11:00:45.951Z,6.50
2022-08-20T11:03:16.890Z,6.20
2022-08-20T11:05:48.135Z,6.30
2022-08-20T11:08:25.113Z,6.90
2022-08-20T11:11:06.454Z,6.00
2022-08-20T11:13:37.739Z,6.70
2022-08-20T11:16:08.874Z,6.70
2022-08-20T11:18:41.770Z,6.50
2022-08-20T11:21:14.381Z,7.00
2022-08-20T11:23:45.043Z,6.70
2022-08-20T11:26:23.082Z,6.90
2022-08-20T11:28:54.079Z,5.70
2022-08-20T11:31:24.914Z,6.90
2022-08-20T11:33:55.592Z,7.30
2022-08-20T11:36:26.697Z,6.00
2022-08-20T11:38:57.390Z,6.80
2022-08-20T11:41:28.095Z,6.10
2022-08-20T11:44:19.877Z,6.50
2022-08-20T11:46:49.518Z,5.90
2022-08-20T11:49:20.354Z,6.00
2022-08-20T11:51:51.035Z,6.20
2022-08-20T11:54:21.728Z,6.30
2022-08-20T11:56:52.676Z,6.20
2022-08-20T11:59:23.484Z,6.00
2022-08-20T12:02:02.991Z,6.70
2022-08-20T12:04:35.183Z,8.40
2022-08-20T12:07:13.569Z,6.70
2022-08-20T12:09:50.640Z,6.10
2022-08-20T12:12:24.102Z,6.50
2022-08-20T12:14:56.338Z,6.10
2022-08-20T12:17:29.310Z,6.50
2022-08-20T12:20:02.356Z,6.40
2022-08-20T12:25:02.322Z,7.20
2022-08-20T12:27:35.707Z,7.20
2022-08-20T12:30:09.985Z,6.30
2022-08-20T12:32:42.352Z,6.90
2022-08-20T12:35:14.670Z,7.00
2022-08-20T12:37:47.354Z,6.30
2022-08-20T12:40:30.637Z,8.40
2022-08-20T12:43:03.676Z,7.00
2022-08-20T12:45:36.339Z,9.00
2022-08-20T12:48:09.843Z,7.50
2022-08-20T12:50:43.929Z,8.30
2022-08-20T12:53:15.201Z,8.10
2022-08-20T12:55:46.241Z,7.50
2022-08-20T12:58:17.139Z,8.50
2022-08-20T13:03:22.862Z,8.30
2022-08-20T13:05:53.802Z,8.60
2022-08-20T13:08:24.843Z,8.40
2022-08-20T13:10:55.831Z,8.80
2022-08-20T13:13:26.703Z,7.70
2022-08-20T13:15:57.593Z,7.20
2022-08-20T13:18:28.598Z,7.80
2022-08-20T13:20:59.469Z,6.90
2022-08-20T13:23:30.755Z,7.60
2022-08-20T13:26:01.602Z,7.40
2022-08-20T13:28:32.569Z,6.40
2022-08-20T13:31:03.548Z,6.30
2022-08-20T13:33:34.686Z,6.90
2022-08-20T13:36:06.189Z,6.30
2022-08-20T13:38:37.025Z,5.70
2022-08-20T13:41:08.261Z,7.00
2022-08-20T13:43:39.196Z,4.80
2022-08-20T13:46:10.219Z,5.40
2022-08-20T13:48:41.335Z,6.30
2022-08-20T13:51:12.095Z,5.20
2022-08-20T13:53:42.997Z,4.80
2022-08-20T13:56:15.093Z,7.60
2022-08-20T13:58:46.019Z,4.90
2022-08-20T14:01:16.806Z,6.30
2022-08-20T14:03:47.926Z,6.70
2022-08-20T14:06:19.303Z,6.30
2022-08-20T14:08:50.186Z,6.10
2022-08-20T14:11:21.087Z,6.10
2022-08-20T14:13:52.066Z,5.20
2022-08-20T14:16:27.655Z,4.50
2022-08-20T14:18:58.930Z,4.70
2022-08-20T14:21:29.761Z,4.50
2022-08-20T14:24:02.253Z,4.60
2022-08-20T14:26:32.940Z,4.70
2022-08-20T14:29:04.229Z,3.60
2022-08-20T14:31:34.988Z,3.50
2022-08-20T14:34:06.079Z,2.90
2022-08-20T14:36:36.805Z,3.50
2022-08-20T14:39:07.627Z,3.50
2022-08-20T14:41:38.636Z,4.20
2022-08-20T14:44:09.477Z,3.30
2022-08-20T14:46:40.344Z,3.40
2022-08-20T14:49:11.105Z,3.20
2022-08-20T14:51:42.034Z,3.20
2022-08-20T14:54:12.945Z,2.90
2022-08-20T14:56:43.689Z,2.80
2022-08-20T14:59:14.500Z,4.20
2022-08-20T15:01:45.360Z,2.70
2022-08-20T15:04:16.304Z,3.40
2022-08-20T15:06:49.073Z,2.50
2022-08-20T15:09:19.892Z,3.60
2022-08-20T15:11:50.690Z,3.50
2022-08-20T15:14:21.549Z,2.50
2022-08-20T15:16:52.722Z,2.80
2022-08-20T15:19:24.114Z,3.00
2022-08-20T15:21:54.789Z,3.40
2022-08-20T15:24:25.603Z,2.60
2022-08-20T15:26:56.408Z,2.90
2022-08-20T15:29:27.094Z,2.80
2022-08-20T15:31:58.347Z,3.20
2022-08-20T15:34:29.279Z,3.40
2022-08-20T15:37:06.979Z,2.60
2022-08-20T15:39:38.112Z,3.00
2022-08-20T15:42:10.443Z,2.60
2022-08-20T15:44:41.750Z,3.10
2022-08-20T15:47:25.247Z,2.90
2022-08-20T15:50:01.676Z,2.60
2022-08-20T15:52:41.828Z,2.80
2022-08-20T15:55:16.914Z,3.10
2022-08-20T15:57:56.810Z,3.80
2022-08-20T16:00:34.537Z,2.80
2022-08-20T16:03:22.286Z,2.50
2022-08-20T16:06:00.983Z,3.00
2022-08-20T16:08:46.458Z,3.10
2022-08-20T16:11:30.091Z,2.60
2022-08-20T16:14:11.940Z,2.80
2022-08-20T16:16:47.423Z,2.50
2022-08-20T16:19:28.769Z,2.90
2022-08-20T16:22:01.547Z,3.80
2022-08-20T16:24:32.897Z,3.10
2022-08-20T16:27:13.864Z,2.60
2022-08-20T16:29:54.696Z,2.90
2022-08-20T16:32:38.694Z,3.10
2022-08-20T16:35:29.931Z,4.20
2022-08-20T16:38:09.138Z,3.30
2022-08-20T16:40:49.690Z,4.20
2022-08-20T16:43:26.980Z,3.20
2022-08-20T16:46:03.680Z,3.50
2022-08-20T16:48:38.807Z,3.50
2022-08-20T16:51:14.898Z,4.60
2022-08-20T16:53:45.773Z,3.50
2022-08-20T16:56:16.591Z,4.30
2022-08-20T16:58:48.577Z,4.60
2022-08-20T17:01:26.734Z,4.70
2022-08-20T17:03:57.603Z,4.30
2022-08-20T17:06:33.401Z,5.10
2022-08-20T17:09:09.948Z,4.80
2022-08-20T17:11:41.952Z,4.90
2022-08-20T17:14:16.060Z,5.10
2022-08-20T17:16:49.596Z,5.00
2022-08-20T17:19:29.186Z,5.60
2022-08-20T17:22:11.870Z,5.60
2022-08-20T17:24:42.908Z,5.30
2022-08-20T17:27:16.401Z,5.50
2022-08-20T17:29:55.077Z,5.50
2022-08-20T17:32:29.044Z,5.60
2022-08-20T17:35:02.756Z,5.30
2022-08-20T17:37:39.302Z,5.70
2022-08-20T17:40:16.802Z,5.20
2022-08-20T17:42:56.977Z,4.70
2022-08-20T17:45:32.865Z,5.20
2022-08-20T17:48:06.286Z,4.80
2022-08-20T17:50:40.687Z,5.00
2022-08-20T17:53:23.353Z,5.00
2022-08-20T17:55:58.689Z,4.40
2022-08-20T17:58:38.728Z,5.40
2022-08-20T18:01:13.309Z,4.60
2022-08-20T18:03:46.359Z,4.30
2022-08-20T18:06:30.718Z,5.00
2022-08-20T18:09:08.252Z,4.50
2022-08-20T18:11:45.246Z,5.00
2022-08-20T18:14:34.754Z,4.80
2022-08-20T18:17:28.921Z,4.10
2022-08-20T18:20:21.285Z,3.90
2022-08-20T18:22:59.363Z,3.60
2022-08-20T18:25:37.193Z,4.70
2022-08-20T18:28:16.161Z,5.00
2022-08-20T18:30:58.695Z,4.50
2022-08-20T18:33:32.869Z,4.50
2022-08-20T18:36:12.552Z,3.90
2022-08-20T18:38:57.111Z,3.70
2022-08-20T18:41:33.921Z,4.40
2022-08-20T18:44:14.361Z,3.80
2022-08-20T18:46:58.018Z,3.90
2022-08-20T18:49:34.302Z,3.70
2022-08-20T18:52:14.394Z,3.80
2022-08-20T18:54:53.336Z,3.70
2022-08-20T18:57:27.439Z,3.50
2022-08-20T19:00:10.550Z,4.30
2022-08-20T19:02:55.019Z,3.80
2022-08-20T19:05:40.626Z,3.70
2022-08-20T19:08:15.013Z,3.80
2022-08-20T19:10:54.555Z,4.00
2022-08-20T19:14:02.967Z,3.80
2022-08-20T19:16:38.331Z,3.80
2022-08-20T19:19:17.535Z,3.40
2022-08-20T19:24:25.794Z,4.70
2022-08-20T19:27:00.402Z,3.60
2022-08-20T19:29:35.447Z,3.60
2022-08-20T19:32:09.343Z,3.70
2022-08-20T19:34:40.975Z,4.00
2022-08-20T19:37:34.873Z,3.90
2022-08-20T19:40:28.208Z,4.00
2022-08-20T19:43:01.882Z,4.60
2022-08-20T19:45:38.744Z,3.90
2022-08-20T19:48:37.050Z,3.60
2022-08-20T19:51:16.300Z,3.80
2022-08-20T19:53:50.545Z,3.40
2022-08-20T19:56:24.040Z,4.90
2022-08-20T19:59:04.585Z,4.00
2022-08-20T20:01:37.208Z,3.70
2022-08-20T20:04:16.231Z,3.90
2022-08-20T20:06:51.673Z,4.50
2022-08-20T20:09:26.267Z,3.80
2022-08-20T20:11:59.929Z,3.70
2022-08-20T20:14:33.164Z,4.60
2022-08-20T20:17:07.707Z,3.70
2022-08-20T20:19:51.260Z,3.90
2022-08-20T20:22:28.397Z,5.40
2022-08-20T20:25:07.150Z,3.80
2022-08-20T20:27:38.887Z,3.70
2022-08-20T20:30:13.881Z,4.10
2022-08-20T20:32:50.531Z,3.60
2022-08-20T20:35:30.217Z,3.30
2022-08-20T20:38:05.209Z,3.70
2022-08-20T20:40:46.111Z,3.70
2022-08-20T20:43:27.667Z,2.80
2022-08-20T20:46:07.805Z,3.50
2022-08-20T20:48:48.424Z,3.40
2022-08-20T20:51:24.655Z,3.40
2022-08-20T20:53:58.106Z,3.30
2022-08-20T20:56:32.653Z,3.00
2022-08-20T20:59:07.032Z,2.80
2022-08-20T21:01:45.707Z,3.10
2022-08-20T21:04:22.741Z,4.10
2022-08-20T21:06:54.956Z,4.60
2022-08-20T21:09:27.007Z,4.50
2022-08-20T21:11:57.748Z,4.00
2022-08-20T21:14:28.863Z,4.40
2022-08-20T21:17:02.429Z,4.70
2022-08-20T21:19:33.873Z,5.30
2022-08-20T21:22:16.160Z,5.10
2022-08-20T21:24:48.795Z,4.50
2022-08-20T21:27:23.367Z,5.00
2022-08-20T21:29:55.592Z,5.10
2022-08-20T21:32:26.641Z,5.10
2022-08-20T21:34:57.475Z,4.40
2022-08-20T21:37:28.242Z,4.30
2022-08-20T21:39:58.984Z,4.40
2022-08-20T21:42:30.078Z,4.20
2022-08-20T21:45:01.180Z,4.80
2022-08-20T21:47:32.359Z,4.60
2022-08-20T21:50:03.157Z,4.00
2022-08-20T21:52:35.465Z,4.50
2022-08-20T21:55:07.180Z,4.50
2022-08-20T21:57:38.773Z,4.50
2022-08-20T22:00:17.553Z,4.20
2022-08-20T22:02:48.308Z,3.70
2022-08-20T22:05:19.370Z,4.20
2022-08-20T22:07:50.053Z,4.80
2022-08-20T22:10:21.056Z,4.60
2022-08-20T22:12:51.881Z,4.20
2022-08-20T22:15:22.840Z,4.30
2022-08-20T22:17:53.568Z,4.00
2022-08-20T22:20:24.930Z,3.80
2022-08-20T22:22:56.468Z,4.30
2022-08-20T22:25:27.243Z,3.60
2022-08-20T22:27:57.964Z,4.40
2022-08-20T22:30:29.743Z,3.70
2022-08-20T22:33:04.653Z,3.90
2022-08-20T22:35:36.718Z,4.50
2022-08-20T22:38:07.535Z,3.90
2022-08-20T22:40:38.489Z,3.60
2022-08-20T22:43:09.411Z,3.90
2022-08-20T22:45:41.395Z,4.10
2022-08-20T22:48:13.365Z,4.90
2022-08-20T22:50:45.106Z,3.40
2022-08-20T22:53:17.213Z,4.10
2022-08-20T22:55:48.625Z,3.90
2022-08-20T22:58:20.409Z,3.90
2022-08-20T23:01:04.762Z,4.10
2022-08-20T23:03:39.458Z,4.00
2022-08-20T23:06:12.388Z,3.40
2022-08-20T23:08:45.059Z,3.80
2022-08-20T23:11:15.895Z,3.90
2022-08-20T23:13:47.664Z,4.90
2022-08-20T23:16:18.437Z,3.50
2022-08-20T23:18:49.172Z,3.60
2022-08-20T23:21:19.874Z,3.60
2022-08-20T23:23:50.729Z,3.90
2022-08-20T23:26:23.912Z,3.60
2022-08-20T23:31:24.108Z,4.30
2022-08-20T23:33:54.898Z,4.10
2022-08-20T23:36:26.583Z,3.80
2022-08-20T23:38:57.706Z,3.40
2022-08-20T23:41:28.774Z,3.40
2022-08-20T23:43:59.940Z,2.90
2022-08-20T23:46:34.442Z,3.60
2022-08-20T23:49:05.915Z,3.30
2022-08-20T23:51:36.739Z,3.30
2022-08-20T23:54:10.008Z,3.10
2022-08-20T23:56:40.755Z,2.80
2022-08-20T23:59:11.455Z,2.80
